createdAt,value
2023-05-25T00:01:00.417Z,102465.94
2023-05-25T00:03:31.333Z,102456.34
2023-05-25T00:06:01.558Z,102459.28
2023-05-25T00:08:31.093Z,102459.28
2023-05-25T00:10:58.926Z,102461.38
2023-05-25T00:13:26.675Z,102464.28
2023-05-25T00:15:54.540Z,102457.22
2023-05-25T00:18:22.306Z,102457.44
2023-05-25T00:20:50.237Z,102470.97
2023-05-25T00:23:18.107Z,102470.13
2023-05-25T00:25:47.384Z,102467.63
2023-05-25T00:28:15.285Z,102471.41
2023-05-25T00:30:43.087Z,102470.78
2023-05-25T00:33:11.249Z,102471.59
2023-05-25T00:35:39.018Z,102464.53
2023-05-25T00:38:06.769Z,102466.63
2023-05-25T00:40:36.169Z,102464.13
2023-05-25T00:43:05.357Z,102466.00
2023-05-25T00:45:33.036Z,102468.69
2023-05-25T00:48:01.636Z,102464.34
2023-05-25T00:50:38.960Z,102475.16
2023-05-25T00:53:07.136Z,102472.66
2023-05-25T00:55:38.318Z,102475.59
2023-05-25T00:58:08.980Z,102479.34
2023-05-25T01:00:38.829Z,102477.47
2023-05-25T01:03:13.034Z,102475.78
2023-05-25T01:05:45.064Z,102477.88
2023-05-25T01:08:14.927Z,102480.59
2023-05-25T01:10:44.115Z,102472.06
2023-05-25T01:13:14.477Z,102479.34
2023-05-25T01:15:42.599Z,102476.84
2023-05-25T01:18:15.006Z,102473.31
2023-05-25T01:20:55.088Z,102474.34
2023-05-25T01:23:28.389Z,102481.66
2023-05-25T01:26:02.709Z,102485.19
2023-05-25T01:28:33.721Z,102471.47
2023-05-25T01:31:02.406Z,102481.22
2023-05-25T01:33:31.730Z,102489.56
2023-05-25T01:36:02.105Z,102489.56
2023-05-25T01:38:29.928Z,102491.66
2023-05-25T01:40:57.708Z,102498.31
2023-05-25T01:43:26.201Z,102498.13
2023-05-25T01:45:59.233Z,102504.16
2023-05-25T01:48:34.578Z,102502.47
2023-05-25T01:51:08.778Z,102500.59
2023-05-25T01:53:38.705Z,102506.22
2023-05-25T01:56:09.911Z,102510.81
2023-05-25T01:58:41.640Z,102508.53
2023-05-25T02:01:10.443Z,102504.16
2023-05-25T02:03:39.082Z,102513.94
2023-05-25T02:06:08.732Z,102510.59
2023-05-25T02:08:36.539Z,102512.47
2023-05-25T02:11:04.484Z,102510.81
2023-05-25T02:13:32.314Z,102509.56
2023-05-25T02:16:00.131Z,102508.53
2023-05-25T02:18:27.941Z,102506.66
2023-05-25T02:20:55.869Z,102513.94
2023-05-25T02:23:24.984Z,102508.75
2023-05-25T02:25:52.736Z,102501.66
2023-05-25T02:28:20.721Z,102510.00
2023-05-25T02:30:48.499Z,102501.88
2023-05-25T02:33:16.231Z,102499.38
2023-05-25T02:35:44.463Z,102502.06
2023-05-25T02:38:12.371Z,102502.28
2023-05-25T02:40:41.604Z,102494.78
2023-05-25T02:43:09.855Z,102501.66
2023-05-25T02:45:37.637Z,102505.63
2023-05-25T02:48:05.503Z,102510.19
2023-05-25T02:50:33.328Z,102505.00
2023-05-25T02:53:01.520Z,102500.63
2023-05-25T02:55:29.999Z,102500.63
2023-05-25T02:58:00.007Z,102504.56
2023-05-25T03:00:28.249Z,102500.19
2023-05-25T03:02:56.009Z,102511.84
2023-05-25T03:05:23.788Z,102511.03
2023-05-25T03:07:51.661Z,102506.03
2023-05-25T03:10:19.452Z,102514.16
2023-05-25T03:12:47.230Z,102511.66
2023-05-25T03:15:17.076Z,102513.72
2023-05-25T03:17:44.887Z,102514.97
2023-05-25T03:20:15.608Z,102511.81
2023-05-25T03:22:44.037Z,102521.41
2023-05-25T03:25:13.205Z,102524.13
2023-05-25T03:27:41.205Z,102528.88
2023-05-25T03:30:10.175Z,102530.75
2023-05-25T03:32:39.328Z,102540.72
2023-05-25T03:35:07.980Z,102535.31
2023-05-25T03:37:35.732Z,102537.19
2023-05-25T03:40:04.725Z,102537.41
2023-05-25T03:42:32.488Z,102541.97
2023-05-25T03:45:00.219Z,102535.72
2023-05-25T03:47:27.955Z,102535.72
2023-05-25T03:49:57.163Z,102538.44
2023-05-25T03:52:24.920Z,102544.88
2023-05-25T03:54:52.742Z,102539.69
2023-05-25T03:57:20.483Z,102544.47
2023-05-25T03:59:48.225Z,102555.50
2023-05-25T04:02:16.012Z,102555.69
2023-05-25T04:04:44.067Z,102554.84
2023-05-25T04:07:13.715Z,102562.13
2023-05-25T04:09:41.484Z,102574.81
2023-05-25T04:12:09.528Z,102570.47
2023-05-25T04:14:37.275Z,102564.81
2023-05-25T04:17:05.337Z,102572.53
2023-05-25T04:19:33.737Z,102570.03
2023-05-25T04:22:01.490Z,102565.66
2023-05-25T04:24:30.635Z,102572.09
2023-05-25T04:26:58.433Z,102567.94
2023-05-25T04:29:26.987Z,102570.84
2023-05-25T04:31:54.915Z,102566.69
2023-05-25T04:34:23.338Z,102571.44
2023-05-25T04:36:51.059Z,102566.25
2023-05-25T04:39:18.828Z,102568.13
2023-05-25T04:41:48.346Z,102576.44
2023-05-25T04:44:16.139Z,102573.94
2023-05-25T04:46:44.693Z,102575.59
2023-05-25T04:49:14.168Z,102565.81
2023-05-25T04:51:41.960Z,102571.44
2023-05-25T04:54:09.751Z,102583.28
2023-05-25T04:56:37.471Z,102580.38
2023-05-25T04:59:07.166Z,102579.75
2023-05-25T05:01:40.600Z,102578.06
2023-05-25T05:04:08.751Z,102575.97
2023-05-25T05:06:37.064Z,102577.25
2023-05-25T05:09:04.982Z,102589.94
2023-05-25T05:11:32.708Z,102594.09
2023-05-25T05:14:00.482Z,102594.09
2023-05-25T05:16:33.754Z,102596.59
2023-05-25T05:19:02.096Z,102587.03
2023-05-25T05:21:29.962Z,102591.63
2023-05-25T05:23:57.699Z,102596.63
2023-05-25T05:26:25.478Z,102601.00
2023-05-25T05:28:53.413Z,102607.03
2023-05-25T05:31:23.108Z,102602.47
2023-05-25T05:33:52.309Z,102611.00
2023-05-25T05:36:20.109Z,102606.44
2023-05-25T05:38:47.880Z,102608.94
2023-05-25T05:41:15.741Z,102616.63
2023-05-25T05:43:45.892Z,102618.09
2023-05-25T05:46:14.021Z,102624.78
2023-05-25T05:48:42.388Z,102631.66
2023-05-25T05:51:11.612Z,102632.28
2023-05-25T05:53:39.419Z,102631.44
2023-05-25T05:56:07.574Z,102638.94
2023-05-25T05:58:35.460Z,102639.78
2023-05-25T06:01:03.387Z,102643.16
2023-05-25T06:03:31.213Z,102646.47
2023-05-25T06:05:59.045Z,102649.19
2023-05-25T06:08:28.799Z,102649.81
2023-05-25T06:10:57.049Z,102647.94
2023-05-25T06:13:24.798Z,102651.28
2023-05-25T06:15:52.600Z,102652.16
2023-05-25T06:18:20.316Z,102660.84
2023-05-25T06:20:48.102Z,102656.63
2023-05-25T06:23:15.896Z,102653.72
2023-05-25T06:25:45.267Z,102652.28
2023-05-25T06:28:13.197Z,102657.72
2023-05-25T06:30:40.942Z,102658.16
2023-05-25T06:33:09.616Z,102663.78
2023-05-25T06:35:37.432Z,102657.13
2023-05-25T06:38:05.189Z,102666.53
2023-05-25T06:40:32.970Z,102664.44
2023-05-25T06:43:02.080Z,102667.78
2023-05-25T06:45:29.924Z,102659.44
2023-05-25T06:47:57.761Z,102670.06
2023-05-25T06:50:25.821Z,102664.25
2023-05-25T06:52:53.575Z,102672.16
2023-05-25T06:55:21.288Z,102669.06
2023-05-25T06:57:49.035Z,102667.81
2023-05-25T07:00:19.759Z,102670.94
2023-05-25T07:02:47.570Z,102671.56
2023-05-25T07:05:15.609Z,102665.94
2023-05-25T07:07:43.439Z,102666.56
2023-05-25T07:10:11.474Z,102676.16
2023-05-25T07:12:39.315Z,102684.91
2023-05-25T07:15:08.272Z,102678.25
2023-05-25T07:17:37.546Z,102679.91
2023-05-25T07:20:06.530Z,102682.22
2023-05-25T07:22:34.371Z,102688.47
2023-05-25T07:25:02.100Z,102688.47
2023-05-25T07:27:31.632Z,102686.59
2023-05-25T07:29:59.460Z,102697.22
2023-05-25T07:32:27.261Z,102692.84
2023-05-25T07:34:56.377Z,102683.66
2023-05-25T07:37:24.200Z,102703.25
2023-05-25T07:39:51.992Z,102697.22
2023-05-25T07:42:21.823Z,102693.47
2023-05-25T07:44:49.915Z,102690.13
2023-05-25T07:47:17.895Z,102693.88
2023-05-25T07:49:46.124Z,102698.47
2023-05-25T07:52:15.276Z,102689.28
2023-05-25T07:54:43.033Z,102693.47
2023-05-25T07:57:10.791Z,102700.53
2023-05-25T07:59:38.595Z,102696.81
2023-05-25T08:02:06.707Z,102698.47
2023-05-25T08:04:35.621Z,102698.47
2023-05-25T08:07:03.786Z,102699.09
2023-05-25T08:09:32.921Z,102704.31
2023-05-25T08:12:24.031Z,102701.19
2023-05-25T08:14:49.561Z,102706.19
2023-05-25T08:17:17.508Z,102706.59
2023-05-25T08:19:45.262Z,102719.09
2023-05-25T08:22:13.041Z,102718.91
2023-05-25T08:24:42.369Z,102718.69
2023-05-25T08:27:10.140Z,102722.03
2023-05-25T08:29:37.921Z,102714.75
2023-05-25T08:32:05.997Z,102723.50
2023-05-25T08:34:34.144Z,102719.75
2023-05-25T08:37:01.953Z,102722.25
2023-05-25T08:39:29.687Z,102716.41
2023-05-25T08:41:58.885Z,102718.06
2023-05-25T08:44:29.166Z,102723.50
2023-05-25T08:46:58.127Z,102723.50
2023-05-25T08:49:27.975Z,102717.25
2023-05-25T08:51:56.690Z,102729.75
2023-05-25T08:54:27.430Z,102727.88
2023-05-25T08:57:02.601Z,102724.13
2023-05-25T08:59:38.855Z,102732.25
2023-05-25T09:02:26.976Z,102732.88
2023-05-25T09:04:55.928Z,102723.72
2023-05-25T09:07:24.635Z,102730.59
2023-05-25T09:09:53.163Z,102731.22
2023-05-25T09:12:23.633Z,102728.28
2023-05-25T09:14:52.179Z,102716.00
2023-05-25T09:17:21.149Z,102728.91
2023-05-25T09:19:48.974Z,102733.91
2023-05-25T09:22:17.169Z,102729.34
2023-05-25T09:24:45.953Z,102734.13
2023-05-25T09:27:17.403Z,102737.88
2023-05-25T09:29:48.207Z,102727.25
2023-05-25T09:32:16.985Z,102729.97
2023-05-25T09:34:45.059Z,102725.78
2023-05-25T09:37:14.376Z,102736.22
2023-05-25T09:39:43.269Z,102730.78
2023-05-25T09:42:11.497Z,102732.25
2023-05-25T09:44:39.570Z,102734.75
2023-05-25T09:47:11.160Z,102736.44
2023-05-25T09:49:39.461Z,102726.63
2023-05-25T09:52:07.757Z,102733.91
2023-05-25T09:54:36.673Z,102737.69
2023-05-25T09:57:05.262Z,102735.78
2023-05-25T09:59:33.288Z,102744.97
2023-05-25T10:02:01.442Z,102736.00
2023-05-25T10:04:30.629Z,102742.25
2023-05-25T10:06:59.262Z,102744.34
2023-05-25T10:09:30.043Z,102740.59
2023-05-25T10:11:58.655Z,102744.13
2023-05-25T10:14:29.962Z,102748.94
2023-05-25T10:17:00.262Z,102750.19
2023-05-25T10:19:34.339Z,102754.56
2023-05-25T10:22:07.754Z,102751.00
2023-05-25T10:24:44.080Z,102749.13
2023-05-25T10:27:26.371Z,102755.41
2023-05-25T10:29:57.418Z,102752.47
2023-05-25T10:32:25.884Z,102748.72
2023-05-25T10:34:56.611Z,102747.69
2023-05-25T10:37:24.637Z,102755.63
2023-05-25T10:39:53.259Z,102746.47
2023-05-25T10:42:21.587Z,102758.97
2023-05-25T10:44:50.649Z,102744.34
2023-05-25T10:47:19.263Z,102759.56
2023-05-25T10:49:56.516Z,102764.78
2023-05-25T10:52:28.722Z,102759.16
2023-05-25T10:54:57.891Z,102756.84
2023-05-25T10:57:26.522Z,102758.09
2023-05-25T11:00:00.068Z,102758.31
2023-05-25T11:02:29.083Z,102754.56
2023-05-25T11:05:32.897Z,102752.69
2023-05-25T11:08:02.168Z,102754.34
2023-05-25T11:10:54.835Z,102749.56
2023-05-25T11:13:24.264Z,102748.50
2023-05-25T11:16:24.668Z,102753.72
2023-05-25T11:18:54.985Z,102751.84
2023-05-25T11:21:43.450Z,102738.09
2023-05-25T11:24:18.828Z,102737.03
2023-05-25T11:26:58.282Z,102734.13
2023-05-25T11:29:27.355Z,102736.63
2023-05-25T11:31:56.164Z,102728.91
2023-05-25T11:34:25.852Z,102725.97
2023-05-25T11:37:02.023Z,102725.56
2023-05-25T11:39:30.248Z,102720.53
2023-05-25T11:42:03.955Z,102720.53
2023-05-25T11:44:33.692Z,102711.16
2023-05-25T11:47:05.852Z,102715.31
2023-05-25T11:49:33.699Z,102718.44
2023-05-25T11:52:07.367Z,102718.84
2023-05-25T11:54:35.718Z,102712.38
2023-05-25T11:57:03.793Z,102714.03
2023-05-25T11:59:32.488Z,102726.34
2023-05-25T12:02:01.673Z,102705.28
2023-05-25T12:04:30.122Z,102706.31
2023-05-25T12:07:06.142Z,102702.94
2023-05-25T12:09:34.040Z,102693.53
2023-05-25T12:12:04.568Z,102702.94
2023-05-25T12:14:36.031Z,102698.94
2023-05-25T12:17:04.012Z,102701.22
2023-05-25T12:19:32.008Z,102691.00
2023-05-25T12:21:59.875Z,102698.72
2023-05-25T12:24:29.088Z,102692.84
2023-05-25T12:26:57.468Z,102698.91
2023-05-25T12:29:26.186Z,102699.72
2023-05-25T12:31:54.015Z,102689.09
2023-05-25T12:34:22.245Z,102692.22
2023-05-25T12:36:51.780Z,102693.88
2023-05-25T12:39:38.854Z,102694.50
2023-05-25T12:42:07.122Z,102690.50
2023-05-25T12:44:36.268Z,102690.28
2023-05-25T12:47:14.418Z,102694.47
2023-05-25T12:49:44.401Z,102693.63
2023-05-25T12:52:13.122Z,102681.50
2023-05-25T12:54:44.902Z,102682.94
2023-05-25T12:57:15.002Z,102681.69
2023-05-25T12:59:44.520Z,102676.03
2023-05-25T13:02:13.285Z,102681.25
2023-05-25T13:04:42.899Z,102670.81
2023-05-25T13:07:11.017Z,102659.34
2023-05-25T13:09:39.260Z,102669.34
2023-05-25T13:12:09.446Z,102675.38
2023-05-25T13:14:37.256Z,102670.16
2023-05-25T13:17:05.977Z,102666.19
2023-05-25T13:19:33.744Z,102665.97
2023-05-25T13:22:01.846Z,102654.28
2023-05-25T13:24:29.612Z,102649.66
2023-05-25T13:26:57.418Z,102656.75
2023-05-25T13:29:26.572Z,102653.84
2023-05-25T13:31:54.328Z,102657.16
2023-05-25T13:34:22.074Z,102653.41
2023-05-25T13:36:49.908Z,102650.47
2023-05-25T13:39:17.626Z,102647.53
2023-05-25T13:41:46.301Z,102656.50
2023-05-25T13:44:17.286Z,102648.97
2023-05-25T13:46:46.911Z,102650.63
2023-05-25T13:49:16.240Z,102651.03
2023-05-25T13:51:44.067Z,102648.09
2023-05-25T13:54:12.858Z,102649.75
2023-05-25T13:56:42.429Z,102647.44
2023-05-25T13:59:10.489Z,102634.06
2023-05-25T14:01:38.306Z,102636.94
2023-05-25T14:04:07.574Z,102648.44
2023-05-25T14:06:35.930Z,102647.16
2023-05-25T14:09:03.771Z,102643.38
2023-05-25T14:11:31.507Z,102636.69
2023-05-25T14:13:59.276Z,102638.34
2023-05-25T14:16:27.280Z,102639.56
2023-05-25T14:18:56.439Z,102639.56
2023-05-25T14:21:25.751Z,102646.44
2023-05-25T14:23:53.557Z,102642.28
2023-05-25T14:26:22.661Z,102639.56
2023-05-25T14:28:50.588Z,102642.50
2023-05-25T14:31:18.429Z,102645.22
2023-05-25T14:33:46.869Z,102643.34
2023-05-25T14:36:14.714Z,102650.22
2023-05-25T14:38:43.871Z,102651.44
2023-05-25T14:41:11.641Z,102644.13
2023-05-25T14:43:39.408Z,102643.88
2023-05-25T14:46:07.444Z,102641.41
2023-05-25T14:48:36.278Z,102633.41
2023-05-25T14:51:04.270Z,102635.69
2023-05-25T14:53:32.453Z,102638.78
2023-05-25T14:56:02.674Z,102642.06
2023-05-25T14:58:32.248Z,102641.63
2023-05-25T15:01:00.200Z,102651.22
2023-05-25T15:03:28.191Z,102635.13
2023-05-25T15:05:56.350Z,102616.22
2023-05-25T15:08:24.113Z,102631.78
2023-05-25T15:10:51.888Z,102633.13
2023-05-25T15:13:22.648Z,102623.97
2023-05-25T15:15:52.100Z,102627.75
2023-05-25T15:18:19.920Z,102620.66
2023-05-25T15:20:47.890Z,102625.03
2023-05-25T15:23:15.695Z,102618.53
2023-05-25T15:25:43.728Z,102619.97
2023-05-25T15:28:11.595Z,102621.41
2023-05-25T15:30:40.713Z,102613.03
2023-05-25T15:33:08.511Z,102618.25
2023-05-25T15:35:36.755Z,102604.72
2023-05-25T15:38:04.517Z,102616.75
2023-05-25T15:40:32.258Z,102617.56
2023-05-25T15:43:00.041Z,102603.22
2023-05-25T15:45:27.865Z,102611.09
2023-05-25T15:47:57.068Z,102616.28
2023-05-25T15:50:24.917Z,102618.19
2023-05-25T15:52:52.718Z,102612.75
2023-05-25T15:55:20.665Z,102604.59
2023-05-25T15:57:48.465Z,102613.56
2023-05-25T16:00:17.431Z,102616.28
2023-05-25T16:02:45.332Z,102613.56
2023-05-25T16:05:14.507Z,102612.75
2023-05-25T16:07:42.284Z,102613.13
2023-05-25T16:10:11.086Z,102609.34
2023-05-25T16:12:38.832Z,102614.78
2023-05-25T16:15:07.440Z,102608.31
2023-05-25T16:17:35.259Z,102612.94
2023-05-25T16:20:03.127Z,102607.50
2023-05-25T16:22:32.277Z,102619.19
2023-05-25T16:25:00.084Z,102615.44
2023-05-25T16:27:27.887Z,102607.03
2023-05-25T16:29:55.651Z,102611.41
2023-05-25T16:32:23.552Z,102595.75
2023-05-25T16:34:51.470Z,102605.97
2023-05-25T16:37:19.237Z,102605.75
2023-05-25T16:39:48.410Z,102603.63
2023-05-25T16:42:16.332Z,102609.69
2023-05-25T16:44:44.103Z,102610.53
2023-05-25T16:47:11.961Z,102608.84
2023-05-25T16:49:39.755Z,102597.75
2023-05-25T16:52:07.539Z,102607.13
2023-05-25T16:54:35.315Z,102595.56
2023-05-25T16:57:04.613Z,102597.38
2023-05-25T16:59:32.457Z,102600.47
2023-05-25T17:02:00.602Z,102595.84
2023-05-25T17:04:28.505Z,102597.50
2023-05-25T17:06:56.622Z,102599.41
2023-05-25T17:09:25.241Z,102603.19
2023-05-25T17:11:53.936Z,102599.03
2023-05-25T17:14:23.245Z,102600.91
2023-05-25T17:16:50.986Z,102600.31
2023-05-25T17:19:18.847Z,102598.88
2023-05-25T17:21:46.662Z,102608.94
2023-05-25T17:24:14.509Z,102594.72
2023-05-25T17:26:42.290Z,102596.63
2023-05-25T17:29:10.067Z,102593.28
2023-05-25T17:31:39.269Z,102603.34
2023-05-25T17:34:07.041Z,102605.22
2023-05-25T17:36:34.847Z,102601.69
2023-05-25T17:39:02.659Z,102600.63
2023-05-25T17:41:30.825Z,102605.22
2023-05-25T17:43:58.569Z,102609.63
2023-05-25T17:46:26.491Z,102613.38
2023-05-25T17:48:55.912Z,102613.38
2023-05-25T17:51:23.750Z,102613.63
2023-05-25T17:53:51.476Z,102612.56
2023-05-25T17:56:19.223Z,102612.78
2023-05-25T17:58:47.661Z,102609.22
2023-05-25T18:01:16.016Z,102613.84
2023-05-25T18:03:44.153Z,102610.53
2023-05-25T18:06:13.382Z,102608.47
2023-05-25T18:08:41.150Z,102613.84
2023-05-25T18:11:08.885Z,102610.06
2023-05-25T18:13:36.692Z,102608.19
2023-05-25T18:16:04.437Z,102606.50
2023-05-25T18:18:32.184Z,102609.22
2023-05-25T18:21:00.111Z,102605.69
2023-05-25T18:23:29.225Z,102599.19
2023-05-25T18:25:56.979Z,102601.69
2023-05-25T18:28:24.712Z,102600.84
2023-05-25T18:30:52.583Z,102601.06
2023-05-25T18:33:20.615Z,102601.06
2023-05-25T18:35:48.631Z,102599.19
2023-05-25T18:38:16.372Z,102594.81
2023-05-25T18:40:45.484Z,102592.09
2023-05-25T18:43:13.242Z,102596.69
2023-05-25T18:45:41.004Z,102596.91
2023-05-25T18:48:08.993Z,102602.72
2023-05-25T18:50:39.089Z,102601.69
2023-05-25T18:53:09.766Z,102614.44
2023-05-25T18:55:37.726Z,102612.78
2023-05-25T18:58:07.208Z,102611.94
2023-05-25T19:00:35.322Z,102624.50
2023-05-25T19:03:03.265Z,102614.91
2023-05-25T19:05:31.201Z,102618.91
2023-05-25T19:07:59.993Z,102619.34
2023-05-25T19:10:28.423Z,102616.88
2023-05-25T19:12:56.392Z,102623.34
2023-05-25T19:15:25.587Z,102623.59
2023-05-25T19:17:53.420Z,102618.56
2023-05-25T19:20:21.221Z,102620.44
2023-05-25T19:22:49.038Z,102625.28
2023-05-25T19:25:16.805Z,102629.06
2023-05-25T19:27:44.545Z,102629.28
2023-05-25T19:30:12.921Z,102634.13
2023-05-25T19:32:42.109Z,102635.41
2023-05-25T19:35:10.587Z,102636.44
2023-05-25T19:37:40.773Z,102645.66
2023-05-25T19:40:10.947Z,102645.06
2023-05-25T19:42:38.796Z,102647.38
2023-05-25T19:45:07.284Z,102645.94
2023-05-25T19:47:35.120Z,102644.28
2023-05-25T19:50:04.500Z,102653.50
2023-05-25T19:52:32.320Z,102652.06
2023-05-25T19:55:00.104Z,102655.00
2023-05-25T19:57:27.904Z,102654.78
2023-05-25T19:59:55.694Z,102656.88
2023-05-25T20:02:23.588Z,102653.56
2023-05-25T20:04:51.702Z,102661.09
2023-05-25T20:07:20.817Z,102658.63
2023-05-25T20:09:48.552Z,102660.53
2023-05-25T20:12:16.687Z,102666.19
2023-05-25T20:14:44.614Z,102657.41
2023-05-25T20:17:12.420Z,102659.53
2023-05-25T20:19:40.175Z,102663.31
2023-05-25T20:22:08.320Z,102661.63
2023-05-25T20:24:37.506Z,102668.72
2023-05-25T20:27:06.087Z,102667.28
2023-05-25T20:29:34.942Z,102673.78
2023-05-25T20:32:02.856Z,102674.84
2023-05-25T20:34:30.617Z,102675.88
2023-05-25T20:36:58.351Z,102665.06
2023-05-25T20:39:26.127Z,102678.81
2023-05-25T20:41:55.248Z,102683.44
2023-05-25T20:44:23.012Z,102684.69
2023-05-25T20:46:50.839Z,102692.25
2023-05-25T20:49:18.577Z,102687.03
2023-05-25T20:51:49.974Z,102691.00
2023-05-25T20:54:17.880Z,102706.69
2023-05-25T20:56:46.483Z,102708.38
2023-05-25T20:59:15.647Z,102710.47
2023-05-25T21:01:44.175Z,102715.28
2023-05-25T21:04:12.100Z,102719.06
2023-05-25T21:06:40.054Z,102716.78
2023-05-25T21:09:07.891Z,102711.34
2023-05-25T21:11:36.019Z,102707.81
2023-05-25T21:14:03.828Z,102712.63
2023-05-25T21:16:32.936Z,102717.66
2023-05-25T21:19:00.776Z,102716.22
2023-05-25T21:21:29.092Z,102720.19
2023-05-25T21:23:56.855Z,102719.38
2023-05-25T21:26:24.640Z,102726.91
2023-05-25T21:28:52.372Z,102718.78
2023-05-25T21:31:20.773Z,102735.06
2023-05-25T21:33:50.044Z,102732.59
2023-05-25T21:36:18.269Z,102737.41
2023-05-25T21:38:46.084Z,102742.81
2023-05-25T21:41:13.850Z,102743.88
2023-05-25T21:43:41.606Z,102753.06
2023-05-25T21:46:09.357Z,102747.63
2023-05-25T21:48:37.100Z,102741.59
2023-05-25T21:51:06.403Z,102754.56
2023-05-25T21:53:34.179Z,102750.38
2023-05-25T21:56:01.905Z,102749.75
2023-05-25T21:58:29.631Z,102752.66
2023-05-25T22:00:57.442Z,102753.72
2023-05-25T22:03:25.254Z,102751.84
2023-05-25T22:05:53.037Z,102754.53
2023-05-25T22:08:22.180Z,102755.59
2023-05-25T22:10:50.047Z,102759.38
2023-05-25T22:13:18.195Z,102753.31
2023-05-25T22:15:46.568Z,102761.66
2023-05-25T22:18:14.542Z,102754.56
2023-05-25T22:20:42.479Z,102753.13
2023-05-25T22:23:12.905Z,102754.16
2023-05-25T22:25:42.492Z,102769.84
2023-05-25T22:28:10.332Z,102763.78
2023-05-25T22:30:38.086Z,102762.34
2023-05-25T22:33:05.918Z,102769.66
2023-05-25T22:35:33.701Z,102763.59
2023-05-25T22:38:01.414Z,102765.69
2023-05-25T22:40:29.157Z,102771.34
2023-05-25T22:42:58.265Z,102765.28
2023-05-25T22:45:26.070Z,102777.19
2023-05-25T22:47:53.833Z,102769.47
2023-05-25T22:50:21.673Z,102766.97
2023-05-25T22:52:49.448Z,102769.91
2023-05-25T22:55:17.193Z,102780.97
2023-05-25T22:57:44.949Z,102775.75
2023-05-25T23:00:14.714Z,102775.34
2023-05-25T23:02:42.528Z,102776.38
2023-05-25T23:05:11.990Z,102775.78
2023-05-25T23:07:39.768Z,102778.69
2023-05-25T23:10:08.763Z,102781.63
2023-05-25T23:12:36.537Z,102759.94
2023-05-25T23:15:06.956Z,102775.78
2023-05-25T23:17:36.193Z,102779.75
2023-05-25T23:20:07.469Z,102779.97
2023-05-25T23:22:35.250Z,102778.28
2023-05-25T23:25:03.085Z,102784.97
2023-05-25T23:27:30.876Z,102778.94
2023-05-25T23:29:58.636Z,102781.03
2023-05-25T23:32:26.420Z,102782.28
2023-05-25T23:34:56.829Z,102791.47
2023-05-25T23:37:24.589Z,102786.25
2023-05-25T23:39:52.355Z,102779.16
2023-05-25T23:42:20.126Z,102774.78
2023-05-25T23:44:47.974Z,102783.75
2023-05-25T23:47:15.810Z,102785.81
2023-05-25T23:49:43.524Z,102784.38
2023-05-25T23:52:12.633Z,102787.09
2023-05-25T23:54:40.359Z,102782.91
2023-05-25T23:57:08.100Z,102779.78
2023-05-25T23:59:35.845Z,102780.00
